createdAt,value
2023-03-26T00:00:39.140Z,11.40
2023-03-26T00:01:41.621Z,11.40
2023-03-26T00:02:43.404Z,11.50
2023-03-26T00:03:46.843Z,11.50
2023-03-26T00:04:49.877Z,11.50
2023-03-26T00:06:12.762Z,11.50
2023-03-26T00:07:15.317Z,11.50
2023-03-26T00:08:17.866Z,11.50
2023-03-26T00:09:20.712Z,11.50
2023-03-26T00:10:25.752Z,11.50
2023-03-26T00:11:29.276Z,11.50
2023-03-26T00:12:31.211Z,11.50
2023-03-26T00:13:40.593Z,11.50
2023-03-26T00:14:42.632Z,11.40
2023-03-26T00:15:44.342Z,11.50
2023-03-26T00:16:47.814Z,11.50
2023-03-26T00:17:51.159Z,11.50
2023-03-26T00:18:53.517Z,11.50
2023-03-26T00:19:58.094Z,11.40
2023-03-26T00:21:01.639Z,11.50
2023-03-26T00:22:03.810Z,11.50
2023-03-26T00:23:05.658Z,11.50
2023-03-26T00:24:15.499Z,11.50
2023-03-26T00:25:17.622Z,11.50
2023-03-26T00:26:19.616Z,11.50
2023-03-26T00:27:21.278Z,11.50
2023-03-26T00:28:23.659Z,11.40
2023-03-26T00:29:29.026Z,11.50
2023-03-26T00:30:30.749Z,11.50
2023-03-26T00:31:33.298Z,11.50
2023-03-26T00:32:35.090Z,11.50
2023-03-26T00:33:38.530Z,11.50
2023-03-26T00:34:41.444Z,11.50
2023-03-26T00:35:47.068Z,11.50
2023-03-26T00:36:54.524Z,11.50
2023-03-26T00:37:56.405Z,11.50
2023-03-26T00:38:59.585Z,11.50
2023-03-26T00:40:08.299Z,11.50
2023-03-26T00:41:23.829Z,11.50
2023-03-26T00:42:26.586Z,11.50
2023-03-26T00:43:32.776Z,11.40
2023-03-26T00:44:35.321Z,11.40
2023-03-26T00:45:37.006Z,11.40
2023-03-26T00:46:38.729Z,11.40
2023-03-26T00:47:40.817Z,11.40
2023-03-26T00:48:45.929Z,11.40
2023-03-26T00:49:50.755Z,11.40
2023-03-26T00:50:52.585Z,11.40
2023-03-26T00:51:54.299Z,11.50
2023-03-26T00:52:56.051Z,11.50
2023-03-26T00:53:58.314Z,11.40
2023-03-26T00:55:00.079Z,11.50
2023-03-26T00:56:01.839Z,11.40
2023-03-26T00:57:06.735Z,11.40
2023-03-26T00:58:12.242Z,11.40
2023-03-26T00:59:14.028Z,11.50
2023-03-26T01:00:18.975Z,11.50
2023-03-26T01:01:30.372Z,11.50
2023-03-26T01:02:32.823Z,11.50
2023-03-26T01:03:36.522Z,11.50
2023-03-26T01:04:38.507Z,11.50
2023-03-26T01:05:53.218Z,11.60
2023-03-26T01:06:55.722Z,11.60
2023-03-26T01:07:57.578Z,11.60
2023-03-26T01:09:05.582Z,11.60
2023-03-26T01:10:07.758Z,11.60
2023-03-26T01:11:16.058Z,11.60
2023-03-26T01:12:23.056Z,11.60
2023-03-26T01:13:25.369Z,11.60
2023-03-26T01:14:29.131Z,11.60
2023-03-26T01:15:30.959Z,11.60
2023-03-26T01:16:39.856Z,11.60
2023-03-26T01:17:43.162Z,11.60
2023-03-26T01:18:45.796Z,11.60
2023-03-26T01:19:53.289Z,11.70
2023-03-26T01:21:05.294Z,11.70
2023-03-26T01:22:11.169Z,11.70
2023-03-26T01:23:20.214Z,11.70
2023-03-26T01:24:22.239Z,11.70
2023-03-26T01:25:29.512Z,11.70
2023-03-26T01:26:59.958Z,11.70
2023-03-26T01:28:03.660Z,11.70
2023-03-26T01:29:08.365Z,11.70
2023-03-26T01:30:25.975Z,11.80
2023-03-26T01:31:38.740Z,11.80
2023-03-26T01:32:50.219Z,11.80
2023-03-26T01:34:14.745Z,11.80
2023-03-26T01:35:24.326Z,11.80
2023-03-26T01:36:51.895Z,11.80
2023-03-26T01:38:27.818Z,11.80
2023-03-26T01:39:40.885Z,11.80
2023-03-26T01:41:05.785Z,11.70
2023-03-26T01:42:15.456Z,11.70
2023-03-26T01:43:42.638Z,11.70
2023-03-26T01:44:55.835Z,11.70
2023-03-26T01:46:04.619Z,11.70
2023-03-26T01:47:07.930Z,11.70
2023-03-26T01:48:09.678Z,11.70
2023-03-26T01:49:13.737Z,11.70
2023-03-26T01:50:15.755Z,11.70
2023-03-26T01:51:36.206Z,11.70
2023-03-26T01:52:38.240Z,11.70
2023-03-26T01:53:46.656Z,11.70
2023-03-26T01:54:49.045Z,11.80
2023-03-26T01:56:10.961Z,11.80
2023-03-26T01:57:18.820Z,11.80
2023-03-26T01:58:36.839Z,11.80
2023-03-26T02:00:21.105Z,11.90
2023-03-26T02:01:37.659Z,11.80
2023-03-26T02:03:18.397Z,11.80
2023-03-26T02:04:57.806Z,11.70
2023-03-26T02:06:31.176Z,11.70
2023-03-26T02:07:58.589Z,11.60
2023-03-26T02:09:10.919Z,11.50
2023-03-26T02:10:18.716Z,11.50
2023-03-26T02:11:21.617Z,11.50
2023-03-26T02:12:25.959Z,11.50
2023-03-26T02:13:28.056Z,11.50
2023-03-26T02:14:31.266Z,11.50
2023-03-26T02:15:33.405Z,11.50
2023-03-26T02:16:35.474Z,11.50
2023-03-26T02:17:40.690Z,11.50
2023-03-26T02:18:44.760Z,11.60
2023-03-26T02:19:48.166Z,11.60
2023-03-26T02:20:55.995Z,11.60
2023-03-26T02:22:00.637Z,11.70
2023-03-26T02:23:02.710Z,11.70
2023-03-26T02:24:04.479Z,11.70
2023-03-26T02:25:11.033Z,11.70
2023-03-26T02:26:18.139Z,11.70
2023-03-26T02:27:21.471Z,11.80
2023-03-26T02:28:23.209Z,11.80
2023-03-26T02:29:27.214Z,11.80
2023-03-26T02:30:29.992Z,11.80
2023-03-26T02:31:33.503Z,11.80
2023-03-26T02:32:36.145Z,11.90
2023-03-26T02:33:39.912Z,11.90
2023-03-26T02:34:42.953Z,11.90
2023-03-26T02:35:46.483Z,11.90
2023-03-26T02:36:48.649Z,12.00
2023-03-26T02:37:51.257Z,11.90
2023-03-26T02:38:54.925Z,11.90
2023-03-26T02:39:56.780Z,11.90
2023-03-26T02:40:58.743Z,11.90
2023-03-26T02:42:00.974Z,11.90
2023-03-26T02:43:02.707Z,11.80
2023-03-26T02:44:06.031Z,11.90
2023-03-26T02:45:07.955Z,11.80
2023-03-26T02:46:09.898Z,11.80
2023-03-26T02:47:13.113Z,11.80
2023-03-26T02:48:15.489Z,11.80
2023-03-26T02:49:17.206Z,11.80
2023-03-26T02:50:19.342Z,11.80
2023-03-26T02:51:23.430Z,11.80
2023-03-26T02:52:25.374Z,11.70
2023-03-26T02:53:29.735Z,11.70
2023-03-26T02:54:31.795Z,11.70
2023-03-26T02:55:33.736Z,11.60
2023-03-26T02:56:35.800Z,11.60
2023-03-26T02:57:37.790Z,11.60
2023-03-26T02:58:39.964Z,11.50
2023-03-26T02:59:42.177Z,11.50
2023-03-26T03:00:47.683Z,11.40
2023-03-26T03:01:49.438Z,11.40
2023-03-26T03:02:52.970Z,11.40
2023-03-26T03:03:54.811Z,11.30
2023-03-26T03:05:01.495Z,11.30
2023-03-26T03:06:03.646Z,11.30
2023-03-26T03:07:05.792Z,11.30
2023-03-26T03:08:08.386Z,11.30
2023-03-26T03:09:10.639Z,11.30
2023-03-26T03:10:15.463Z,11.40
2023-03-26T03:11:29.417Z,11.40
2023-03-26T03:12:31.102Z,11.40
2023-03-26T03:13:33.015Z,11.30
2023-03-26T03:14:36.500Z,11.40
2023-03-26T03:15:40.025Z,11.40
2023-03-26T03:16:41.720Z,11.40
2023-03-26T03:17:43.394Z,11.40
2023-03-26T03:18:45.109Z,11.40
2023-03-26T03:19:46.962Z,11.40
2023-03-26T03:20:49.836Z,11.40
2023-03-26T03:21:51.503Z,11.40
2023-03-26T03:22:55.060Z,11.50
2023-03-26T03:24:00.048Z,11.50
2023-03-26T03:25:03.635Z,11.50
2023-03-26T03:26:09.037Z,11.50
2023-03-26T03:27:10.663Z,11.50
2023-03-26T03:28:13.762Z,11.50
2023-03-26T03:29:17.383Z,11.50
2023-03-26T03:30:19.307Z,11.50
2023-03-26T03:31:21.725Z,11.50
2023-03-26T03:32:25.233Z,11.50
2023-03-26T03:33:27.327Z,11.60
2023-03-26T03:34:29.023Z,11.50
2023-03-26T03:35:30.730Z,11.60
2023-03-26T03:36:33.347Z,11.80
2023-03-26T03:37:35.328Z,11.60
2023-03-26T03:38:38.703Z,11.60
2023-03-26T03:39:41.890Z,11.70
2023-03-26T03:40:44.037Z,11.70
2023-03-26T03:41:45.786Z,11.70
2023-03-26T03:42:47.435Z,11.80
2023-03-26T03:43:49.256Z,11.80
2023-03-26T03:44:51.487Z,11.80
2023-03-26T03:45:53.761Z,11.90
2023-03-26T03:46:56.941Z,11.90
2023-03-26T03:47:58.989Z,11.90
2023-03-26T03:49:00.830Z,11.90
2023-03-26T03:50:02.643Z,12.00
2023-03-26T03:51:05.288Z,11.90
2023-03-26T03:52:07.561Z,12.00
2023-03-26T03:53:09.511Z,12.20
2023-03-26T03:54:11.318Z,12.00
2023-03-26T03:55:14.397Z,12.00
2023-03-26T03:56:19.481Z,12.00
2023-03-26T03:57:22.142Z,12.00
2023-03-26T03:58:28.401Z,12.00
2023-03-26T03:59:30.190Z,12.00
2023-03-26T04:00:33.359Z,12.00
2023-03-26T04:01:35.447Z,12.00
2023-03-26T04:02:37.883Z,12.00
2023-03-26T04:03:45.980Z,12.10
2023-03-26T04:04:50.338Z,12.00
2023-03-26T04:05:55.169Z,12.10
2023-03-26T04:06:58.595Z,12.10
2023-03-26T04:08:00.478Z,12.10
2023-03-26T04:09:02.135Z,12.10
2023-03-26T04:10:05.034Z,12.10
2023-03-26T04:11:06.788Z,12.10
2023-03-26T04:12:08.445Z,12.10
2023-03-26T04:13:15.094Z,12.10
2023-03-26T04:14:19.289Z,12.10
2023-03-26T04:15:21.951Z,12.10
2023-03-26T04:16:23.700Z,12.10
2023-03-26T04:17:25.827Z,12.10
2023-03-26T04:18:27.827Z,12.10
2023-03-26T04:19:29.729Z,12.10
2023-03-26T04:20:34.557Z,12.20
2023-03-26T04:21:38.914Z,12.20
2023-03-26T04:22:42.513Z,12.10
2023-03-26T04:23:44.438Z,12.20
2023-03-26T04:24:48.730Z,12.10
2023-03-26T04:25:54.355Z,12.10
2023-03-26T04:27:01.102Z,12.10
2023-03-26T04:28:07.556Z,12.20
2023-03-26T04:29:12.795Z,12.20
2023-03-26T04:30:19.128Z,12.20
2023-03-26T04:31:24.256Z,12.20
2023-03-26T04:32:30.020Z,12.20
2023-03-26T04:33:33.536Z,12.20
2023-03-26T04:34:37.376Z,12.20
2023-03-26T04:35:41.788Z,12.10
2023-03-26T04:36:46.525Z,12.10
2023-03-26T04:37:48.475Z,12.10
2023-03-26T04:38:52.035Z,12.10
2023-03-26T04:39:55.036Z,12.10
2023-03-26T04:41:01.570Z,12.00
2023-03-26T04:42:04.450Z,12.00
2023-03-26T04:43:06.350Z,11.90
2023-03-26T04:44:08.082Z,11.90
2023-03-26T04:45:11.425Z,11.90
2023-03-26T04:46:14.961Z,12.00
2023-03-26T04:47:19.918Z,11.90
2023-03-26T04:48:22.546Z,12.00
2023-03-26T04:49:24.427Z,12.00
2023-03-26T04:50:26.905Z,11.90
2023-03-26T04:51:38.276Z,11.90
2023-03-26T04:52:41.629Z,11.90
2023-03-26T04:54:08.561Z,11.90
2023-03-26T04:55:24.585Z,11.90
2023-03-26T04:56:53.082Z,11.90
2023-03-26T04:57:59.769Z,11.90
2023-03-26T04:59:02.339Z,11.90
2023-03-26T05:00:15.767Z,11.90
2023-03-26T05:01:17.795Z,11.90
2023-03-26T05:02:20.144Z,11.90
2023-03-26T05:03:21.894Z,11.80
2023-03-26T05:04:24.627Z,11.80
2023-03-26T05:05:28.195Z,11.80
2023-03-26T05:06:32.638Z,11.70
2023-03-26T05:07:34.784Z,11.70
2023-03-26T05:08:36.513Z,11.70
2023-03-26T05:09:38.539Z,11.70
2023-03-26T05:10:40.397Z,11.70
2023-03-26T05:11:42.936Z,11.70
2023-03-26T05:12:45.022Z,11.60
2023-03-26T05:13:47.131Z,11.60
2023-03-26T05:14:50.682Z,11.60
2023-03-26T05:15:54.331Z,11.50
2023-03-26T05:16:57.049Z,11.50
2023-03-26T05:17:58.839Z,11.50
2023-03-26T05:19:00.624Z,11.50
2023-03-26T05:20:02.615Z,11.50
2023-03-26T05:21:05.152Z,11.50
2023-03-26T05:22:06.793Z,11.50
2023-03-26T05:23:08.595Z,11.60
2023-03-26T05:24:10.615Z,11.60
2023-03-26T05:25:12.677Z,11.60
2023-03-26T05:26:14.724Z,11.70
2023-03-26T05:27:17.552Z,11.70
2023-03-26T05:28:20.843Z,11.70
2023-03-26T05:29:24.744Z,11.70
2023-03-26T05:30:27.173Z,11.70
2023-03-26T05:31:31.199Z,11.80
2023-03-26T05:32:33.888Z,11.80
2023-03-26T05:33:36.205Z,11.80
2023-03-26T05:34:42.313Z,11.80
2023-03-26T05:35:45.820Z,11.80
2023-03-26T05:36:48.663Z,11.80
2023-03-26T05:37:51.507Z,11.90
2023-03-26T05:38:53.606Z,11.90
2023-03-26T05:39:55.546Z,11.90
2023-03-26T05:41:09.178Z,11.90
2023-03-26T05:42:11.022Z,11.90
2023-03-26T05:43:13.050Z,11.90
2023-03-26T05:44:15.066Z,11.90
2023-03-26T05:45:16.890Z,11.80
2023-03-26T05:46:20.554Z,11.80
2023-03-26T05:47:22.710Z,11.80
2023-03-26T05:48:25.621Z,11.80
2023-03-26T05:49:28.105Z,11.70
2023-03-26T05:50:29.941Z,11.70
2023-03-26T05:51:31.922Z,11.70
2023-03-26T05:52:34.021Z,11.70
2023-03-26T05:53:36.175Z,11.70
2023-03-26T05:54:37.861Z,11.70
2023-03-26T05:55:40.692Z,11.70
2023-03-26T05:56:42.635Z,11.70
2023-03-26T05:57:44.424Z,11.70
2023-03-26T05:58:47.631Z,11.80
2023-03-26T05:59:49.898Z,11.80
2023-03-26T06:01:05.713Z,11.80
2023-03-26T06:02:13.090Z,11.80
2023-03-26T06:03:16.769Z,11.80
2023-03-26T06:04:18.946Z,11.90
2023-03-26T06:05:21.594Z,11.90
2023-03-26T06:06:23.923Z,11.80
2023-03-26T06:07:27.440Z,11.80
2023-03-26T06:08:29.753Z,11.80
2023-03-26T06:09:31.909Z,11.80
2023-03-26T06:10:33.949Z,11.80
2023-03-26T06:11:36.121Z,11.80
2023-03-26T06:12:38.243Z,11.90
2023-03-26T06:13:41.650Z,11.90
2023-03-26T06:14:45.777Z,11.90
2023-03-26T06:15:48.049Z,11.90
2023-03-26T06:16:52.319Z,11.90
2023-03-26T06:17:55.430Z,11.90
2023-03-26T06:18:58.340Z,11.90
2023-03-26T06:20:00.600Z,11.90
2023-03-26T06:21:02.890Z,11.90
2023-03-26T06:22:05.403Z,11.90
2023-03-26T06:23:07.285Z,11.80
2023-03-26T06:24:08.931Z,11.80
2023-03-26T06:25:10.782Z,11.80
2023-03-26T06:26:15.201Z,11.80
2023-03-26T06:27:17.147Z,11.80
2023-03-26T06:28:22.542Z,11.80
2023-03-26T06:29:24.348Z,11.80
2023-03-26T06:30:27.585Z,11.70
2023-03-26T06:31:29.376Z,11.60
2023-03-26T06:32:31.191Z,11.70
2023-03-26T06:33:33.113Z,11.70
2023-03-26T06:34:34.993Z,11.70
2023-03-26T06:35:36.813Z,11.70
2023-03-26T06:36:38.914Z,11.60
2023-03-26T06:37:40.866Z,11.60
2023-03-26T06:38:43.051Z,11.60
2023-03-26T06:39:47.446Z,11.60
2023-03-26T06:40:49.180Z,11.60
2023-03-26T06:41:50.756Z,11.60
2023-03-26T06:43:07.787Z,11.60
2023-03-26T06:44:12.305Z,11.60
2023-03-26T06:45:14.261Z,11.60
2023-03-26T06:46:16.352Z,11.60
2023-03-26T06:47:19.131Z,11.50
2023-03-26T06:48:20.734Z,11.50
2023-03-26T06:49:22.449Z,11.50
2023-03-26T06:50:24.087Z,11.60
2023-03-26T06:51:26.011Z,11.60
2023-03-26T06:52:28.551Z,11.60
2023-03-26T06:53:30.352Z,11.70
2023-03-26T06:54:32.417Z,11.70
2023-03-26T06:55:34.104Z,11.70
2023-03-26T06:56:37.097Z,11.70
2023-03-26T06:57:39.096Z,11.70
2023-03-26T06:58:41.094Z,11.80
2023-03-26T06:59:44.028Z,11.80
2023-03-26T07:00:45.832Z,11.80
2023-03-26T07:01:47.697Z,11.80
2023-03-26T07:02:49.570Z,11.80
2023-03-26T07:03:52.451Z,11.80
2023-03-26T07:04:54.162Z,11.70
2023-03-26T07:05:56.276Z,11.70
2023-03-26T07:06:57.920Z,11.70
2023-03-26T07:07:59.876Z,11.70
2023-03-26T07:09:02.618Z,11.60
2023-03-26T07:10:04.954Z,11.60
2023-03-26T07:11:06.906Z,11.60
2023-03-26T07:12:08.549Z,11.60
2023-03-26T07:13:10.627Z,11.60
2023-03-26T07:14:13.299Z,11.60
2023-03-26T07:15:15.456Z,11.60
2023-03-26T07:16:17.553Z,11.60
2023-03-26T07:17:20.225Z,11.60
2023-03-26T07:18:22.039Z,11.60
2023-03-26T07:19:23.863Z,11.60
2023-03-26T07:20:26.341Z,11.60
2023-03-26T07:21:28.366Z,11.60
2023-03-26T07:22:30.384Z,11.60
2023-03-26T07:23:32.700Z,11.60
2023-03-26T07:24:34.974Z,11.60
2023-03-26T07:25:37.583Z,11.60
2023-03-26T07:27:23.497Z,11.60
2023-03-26T07:28:39.245Z,11.70
2023-03-26T07:29:50.072Z,11.60
2023-03-26T07:31:19.486Z,11.70
2023-03-26T07:32:43.350Z,11.70
2023-03-26T07:34:02.383Z,11.70
2023-03-26T07:35:20.576Z,11.70
2023-03-26T07:36:22.338Z,11.70
2023-03-26T07:37:42.199Z,11.70
2023-03-26T07:38:56.987Z,11.70
2023-03-26T07:40:23.272Z,11.60
2023-03-26T07:41:33.190Z,11.60
2023-03-26T07:42:48.707Z,11.60
2023-03-26T07:44:20.326Z,11.60
2023-03-26T07:45:29.455Z,11.60
2023-03-26T07:46:34.093Z,11.60
2023-03-26T07:47:36.754Z,11.60
2023-03-26T07:48:45.139Z,11.60
2023-03-26T07:49:47.594Z,11.60
2023-03-26T07:50:49.687Z,11.60
2023-03-26T07:51:51.734Z,11.60
2023-03-26T07:52:55.354Z,11.60
2023-03-26T07:54:00.218Z,11.70
2023-03-26T07:55:03.762Z,11.70
2023-03-26T07:56:16.011Z,11.70
2023-03-26T07:58:11.967Z,11.80
2023-03-26T07:59:28.108Z,11.80
2023-03-26T08:00:51.442Z,11.80
2023-03-26T08:02:34.730Z,11.80
2023-03-26T08:03:57.985Z,11.80
2023-03-26T08:05:05.747Z,11.80
2023-03-26T08:06:33.724Z,11.80
2023-03-26T08:08:05.168Z,11.80
2023-03-26T08:09:35.947Z,11.80
2023-03-26T08:10:58.798Z,11.80
2023-03-26T08:12:38.165Z,11.80
2023-03-26T08:13:40.098Z,11.80
2023-03-26T08:14:52.282Z,11.70
2023-03-26T08:16:07.343Z,11.70
2023-03-26T08:17:31.133Z,11.70
2023-03-26T08:18:58.354Z,11.70
2023-03-26T08:20:18.898Z,11.70
2023-03-26T08:21:31.763Z,11.60
2023-03-26T08:22:41.776Z,11.60
2023-03-26T08:24:03.634Z,11.60
2023-03-26T08:25:29.857Z,11.60
2023-03-26T08:26:35.333Z,11.60
2023-03-26T08:27:40.426Z,11.60
2023-03-26T08:29:00.567Z,11.60
2023-03-26T08:30:23.291Z,11.60
2023-03-26T08:31:36.472Z,11.60
2023-03-26T08:32:39.112Z,11.70
2023-03-26T08:33:40.923Z,11.70
2023-03-26T08:34:45.459Z,11.70
2023-03-26T08:35:48.513Z,11.70
2023-03-26T08:36:50.490Z,11.70
2023-03-26T08:37:52.378Z,11.70
2023-03-26T08:38:54.607Z,11.60
2023-03-26T08:39:56.741Z,11.60
2023-03-26T08:41:12.736Z,11.50
2023-03-26T08:42:29.411Z,11.60
2023-03-26T08:44:08.692Z,11.60
2023-03-26T08:45:40.906Z,11.60
2023-03-26T08:47:04.037Z,11.60
2023-03-26T08:48:36.477Z,11.60
2023-03-26T08:50:11.760Z,11.60
2023-03-26T08:51:57.521Z,11.50
2023-03-26T08:53:28.608Z,11.50
2023-03-26T08:54:50.550Z,11.40
2023-03-26T08:55:56.685Z,11.40
2023-03-26T08:57:36.628Z,11.40
2023-03-26T08:59:01.012Z,11.40
2023-03-26T09:00:15.917Z,11.40
2023-03-26T09:01:48.313Z,11.50
2023-03-26T09:03:05.732Z,11.50
2023-03-26T09:04:32.812Z,11.50
2023-03-26T09:06:03.041Z,11.60
2023-03-26T09:07:23.556Z,11.70
2023-03-26T09:08:56.244Z,11.70
2023-03-26T09:10:25.293Z,11.80
2023-03-26T09:11:52.790Z,11.80
2023-03-26T09:13:12.488Z,11.80
2023-03-26T09:14:54.736Z,11.90
2023-03-26T09:16:33.133Z,11.90
2023-03-26T09:18:05.741Z,11.90
2023-03-26T09:19:29.134Z,11.90
2023-03-26T09:20:48.980Z,11.90
2023-03-26T09:22:28.870Z,11.90
2023-03-26T09:24:18.715Z,12.00
2023-03-26T09:25:55.934Z,11.90
2023-03-26T09:27:45.857Z,11.90
2023-03-26T09:29:17.059Z,11.90
2023-03-26T09:30:40.673Z,12.00
2023-03-26T09:31:42.519Z,12.10
2023-03-26T09:32:47.924Z,12.00
2023-03-26T09:34:38.679Z,12.00
2023-03-26T09:35:54.069Z,11.90
2023-03-26T09:37:00.540Z,11.90
2023-03-26T09:38:45.514Z,11.90
2023-03-26T09:40:11.413Z,11.90
2023-03-26T09:41:36.258Z,11.90
2023-03-26T09:43:17.257Z,11.90
2023-03-26T09:44:43.917Z,12.00
2023-03-26T09:46:21.775Z,12.10
2023-03-26T09:47:44.761Z,12.20
2023-03-26T09:48:55.740Z,12.30
2023-03-26T09:50:21.816Z,12.30
2023-03-26T09:52:05.019Z,12.40
2023-03-26T09:53:20.809Z,12.50
2023-03-26T09:54:45.657Z,12.50
2023-03-26T09:56:20.277Z,12.50
2023-03-26T09:57:37.596Z,12.60
2023-03-26T09:58:48.623Z,12.60
2023-03-26T09:59:53.164Z,12.70
2023-03-26T10:01:08.981Z,12.70
2023-03-26T10:02:45.516Z,12.70
2023-03-26T10:03:51.934Z,12.80
2023-03-26T10:05:47.343Z,12.80
2023-03-26T10:07:27.059Z,12.90
2023-03-26T10:08:41.900Z,13.00
2023-03-26T10:09:51.096Z,13.00
2023-03-26T10:10:58.079Z,13.00
2023-03-26T10:12:21.893Z,13.00
2023-03-26T10:13:30.893Z,13.00
2023-03-26T10:14:42.480Z,13.10
2023-03-26T10:15:57.180Z,13.10
2023-03-26T10:17:15.450Z,13.20
2023-03-26T10:18:29.255Z,13.20
2023-03-26T10:19:57.877Z,13.20
2023-03-26T10:21:24.936Z,13.20
2023-03-26T10:22:45.379Z,13.20
2023-03-26T10:23:57.755Z,13.20
2023-03-26T10:25:19.174Z,13.30
2023-03-26T10:27:08.971Z,13.30
2023-03-26T10:28:21.768Z,13.20
2023-03-26T10:29:41.687Z,13.20
2023-03-26T10:30:52.174Z,13.20
2023-03-26T10:32:29.934Z,13.30
2023-03-26T10:33:52.282Z,13.30
2023-03-26T10:35:24.427Z,13.20
2023-03-26T10:36:35.676Z,13.20
2023-03-26T10:37:58.879Z,13.20
2023-03-26T10:39:36.167Z,13.20
2023-03-26T10:40:49.881Z,13.30
2023-03-26T10:42:00.911Z,13.30
2023-03-26T10:43:23.073Z,13.40
2023-03-26T10:44:55.656Z,13.40
2023-03-26T10:46:19.619Z,13.40
2023-03-26T10:47:54.190Z,13.40
2023-03-26T10:49:11.332Z,13.40
2023-03-26T10:50:34.913Z,13.50
2023-03-26T10:51:53.508Z,13.50
2023-03-26T10:53:06.911Z,13.50
2023-03-26T10:54:25.800Z,13.60
2023-03-26T10:55:37.877Z,13.60
2023-03-26T10:56:49.527Z,13.70
2023-03-26T10:58:23.893Z,13.80
2023-03-26T10:59:27.498Z,13.80
2023-03-26T11:00:33.639Z,13.80
2023-03-26T11:01:42.347Z,13.80
2023-03-26T11:02:55.953Z,13.90
2023-03-26T11:04:04.776Z,13.90
2023-03-26T11:05:06.417Z,13.90
2023-03-26T11:06:17.612Z,13.90
2023-03-26T11:07:36.030Z,14.10
2023-03-26T11:09:01.376Z,13.90
2023-03-26T11:10:16.424Z,13.90
2023-03-26T11:11:36.107Z,13.90
2023-03-26T11:12:58.675Z,13.90
2023-03-26T11:14:28.017Z,14.00
2023-03-26T11:15:41.483Z,13.90
2023-03-26T11:17:40.999Z,13.90
2023-03-26T11:18:52.782Z,14.00
2023-03-26T11:20:18.869Z,14.00
2023-03-26T11:21:38.947Z,14.10
2023-03-26T11:23:10.586Z,14.10
2023-03-26T11:24:55.927Z,14.30
2023-03-26T11:26:17.280Z,14.40
2023-03-26T11:27:32.550Z,14.40
2023-03-26T11:29:03.940Z,14.40
2023-03-26T11:30:48.417Z,14.40
2023-03-26T11:32:13.843Z,14.40
2023-03-26T11:33:24.142Z,14.40
2023-03-26T11:34:39.039Z,14.50
2023-03-26T11:35:45.871Z,14.60
2023-03-26T11:36:54.330Z,14.70
2023-03-26T11:37:59.151Z,14.80
2023-03-26T11:39:04.650Z,14.80
2023-03-26T11:40:20.288Z,14.90
2023-03-26T11:41:29.030Z,14.90
2023-03-26T11:42:32.105Z,15.10
2023-03-26T11:43:37.037Z,15.00
2023-03-26T11:44:43.810Z,15.00
2023-03-26T11:45:48.209Z,15.00
2023-03-26T11:46:59.041Z,15.00
2023-03-26T11:48:08.227Z,15.10
2023-03-26T11:49:13.242Z,15.20
2023-03-26T11:50:21.865Z,15.20
2023-03-26T11:51:55.513Z,15.20
2023-03-26T11:53:03.515Z,15.30
2023-03-26T11:54:07.882Z,15.50
2023-03-26T11:55:12.562Z,15.50
2023-03-26T11:56:33.879Z,15.70
2023-03-26T11:57:40.752Z,15.70
2023-03-26T11:58:54.941Z,15.70
2023-03-26T12:00:16.855Z,15.80
2023-03-26T12:01:30.559Z,15.90
2023-03-26T12:02:40.999Z,15.90
2023-03-26T12:03:43.006Z,15.90
2023-03-26T12:04:55.541Z,16.00
2023-03-26T12:05:59.768Z,15.90
2023-03-26T12:07:19.243Z,16.00
2023-03-26T12:08:34.649Z,15.90
2023-03-26T12:09:36.512Z,15.90
2023-03-26T12:10:41.627Z,15.90
2023-03-26T12:11:45.187Z,15.90
2023-03-26T12:12:48.268Z,15.70
2023-03-26T12:13:58.587Z,15.70
2023-03-26T12:15:02.507Z,15.70
2023-03-26T12:16:14.541Z,15.70
2023-03-26T12:17:31.080Z,15.70
2023-03-26T12:18:33.460Z,15.60
2023-03-26T12:19:44.703Z,15.50
2023-03-26T12:20:46.524Z,15.30
2023-03-26T12:21:54.085Z,15.30
2023-03-26T12:23:01.163Z,15.20
2023-03-26T12:24:05.450Z,15.20
2023-03-26T12:25:25.469Z,15.20
2023-03-26T12:26:39.794Z,15.10
2023-03-26T12:28:14.537Z,15.10
2023-03-26T12:29:19.178Z,15.00
2023-03-26T12:30:28.715Z,14.90
2023-03-26T12:31:41.499Z,15.00
2023-03-26T12:32:46.794Z,14.90
2023-03-26T12:34:07.547Z,14.90
2023-03-26T12:35:18.900Z,14.80
2023-03-26T12:36:25.627Z,14.80
2023-03-26T12:37:39.438Z,14.80
2023-03-26T12:38:42.790Z,14.80
2023-03-26T12:40:09.731Z,14.80
2023-03-26T12:41:08.763Z,14.80
2023-03-26T12:44:50.757Z,14.80
2023-03-26T12:44:53.521Z,14.80
2023-03-26T12:45:19.967Z,14.80
2023-03-26T12:47:55.272Z,14.70
2023-03-26T12:48:03.428Z,14.60
2023-03-26T12:49:11.595Z,14.60
2023-03-26T12:50:16.721Z,14.50
2023-03-26T12:51:44.200Z,14.50
2023-03-26T12:53:09.184Z,14.50
2023-03-26T12:54:23.931Z,14.50
2023-03-26T12:55:44.319Z,14.60
2023-03-26T12:57:11.820Z,14.50
2023-03-26T12:58:32.891Z,14.50
2023-03-26T12:59:59.372Z,14.60
2023-03-26T13:01:20.429Z,14.70
2023-03-26T13:02:36.520Z,14.90
2023-03-26T13:03:52.989Z,15.00
2023-03-26T13:05:05.142Z,15.10
2023-03-26T13:06:32.123Z,15.10
2023-03-26T13:08:16.172Z,15.20
2023-03-26T13:09:39.529Z,15.30
2023-03-26T13:10:50.913Z,15.40
2023-03-26T13:12:01.118Z,15.50
2023-03-26T13:13:21.663Z,15.60
2023-03-26T13:14:31.908Z,15.60
2023-03-26T13:15:44.151Z,15.70
2023-03-26T13:17:13.162Z,15.70
2023-03-26T13:18:43.805Z,15.80
2023-03-26T13:20:13.298Z,15.90
2023-03-26T13:21:46.940Z,15.90
2023-03-26T13:23:11.037Z,15.90
2023-03-26T13:24:29.844Z,15.90
2023-03-26T13:25:43.343Z,15.90
2023-03-26T13:26:51.329Z,15.80
2023-03-26T13:28:02.494Z,15.80
2023-03-26T13:29:17.540Z,15.80
2023-03-26T13:30:47.261Z,15.80
2023-03-26T13:31:59.104Z,15.80
2023-03-26T13:33:45.432Z,15.80
2023-03-26T13:35:03.103Z,15.80
2023-03-26T13:36:23.915Z,15.80
2023-03-26T13:37:54.202Z,15.80
2023-03-26T13:39:14.165Z,15.80
2023-03-26T13:40:25.545Z,15.80
2023-03-26T13:43:33.462Z,15.70
2023-03-26T13:45:04.859Z,15.70
2023-03-26T13:46:31.195Z,15.80
2023-03-26T13:47:41.144Z,15.90
2023-03-26T13:48:53.845Z,15.90
2023-03-26T13:50:01.296Z,15.90
2023-03-26T13:51:13.103Z,15.90
2023-03-26T13:52:40.033Z,15.90
2023-03-26T13:53:50.568Z,16.00
2023-03-26T13:55:24.235Z,16.00
2023-03-26T13:56:35.851Z,16.00
2023-03-26T13:57:43.198Z,15.90
2023-03-26T13:58:56.330Z,15.90
2023-03-26T14:00:07.151Z,15.90
2023-03-26T14:01:34.039Z,15.90
2023-03-26T14:02:47.881Z,15.90
2023-03-26T14:03:55.633Z,15.90
2023-03-26T14:05:06.689Z,16.00
2023-03-26T14:06:49.079Z,16.00
2023-03-26T14:08:00.557Z,16.00
2023-03-26T14:09:30.646Z,16.00
2023-03-26T14:10:38.241Z,16.10
2023-03-26T14:12:05.982Z,16.10
2023-03-26T14:15:37.195Z,16.10
2023-03-26T14:16:53.250Z,16.00
2023-03-26T14:18:10.406Z,16.00
2023-03-26T14:19:36.049Z,16.10
2023-03-26T14:20:56.705Z,16.10
2023-03-26T14:22:07.934Z,16.00
2023-03-26T14:23:25.844Z,16.00
2023-03-26T14:24:45.577Z,15.90
2023-03-26T14:26:25.324Z,15.90
2023-03-26T14:27:51.635Z,15.80
2023-03-26T14:29:14.499Z,15.80
2023-03-26T14:30:34.980Z,15.70
2023-03-26T14:31:56.826Z,15.60
2023-03-26T14:33:27.279Z,15.50
2023-03-26T14:34:42.712Z,15.40
2023-03-26T14:35:56.468Z,15.20
2023-03-26T14:37:27.772Z,14.90
2023-03-26T14:39:01.499Z,14.50
2023-03-26T14:40:27.439Z,14.10
2023-03-26T14:41:44.115Z,13.70
2023-03-26T14:42:58.246Z,13.60
2023-03-26T14:44:30.137Z,13.50
2023-03-26T14:46:21.437Z,13.30
2023-03-26T14:47:25.009Z,13.20
2023-03-26T14:48:54.061Z,13.00
2023-03-26T14:50:20.141Z,12.90
2023-03-26T14:51:52.246Z,12.70
2023-03-26T14:53:01.394Z,12.50
2023-03-26T14:54:12.938Z,12.30
2023-03-26T14:55:24.512Z,12.20
2023-03-26T14:56:31.947Z,12.00
2023-03-26T14:58:17.531Z,11.90
2023-03-26T14:59:49.946Z,11.80
2023-03-26T15:01:09.660Z,11.80
2023-03-26T15:02:41.758Z,11.80
2023-03-26T15:04:10.558Z,11.90
2023-03-26T15:05:24.428Z,12.00
2023-03-26T15:06:57.184Z,12.10
2023-03-26T15:08:08.173Z,12.10
2023-03-26T15:09:41.144Z,12.10
2023-03-26T15:11:11.632Z,12.10
2023-03-26T15:12:27.429Z,12.10
2023-03-26T15:14:26.190Z,12.10
2023-03-26T15:16:02.076Z,11.90
2023-03-26T15:17:27.666Z,12.00
2023-03-26T15:18:51.027Z,12.00
2023-03-26T15:20:33.432Z,12.00
2023-03-26T15:22:13.939Z,11.90
2023-03-26T15:23:53.170Z,11.90
2023-03-26T15:25:37.046Z,11.70
2023-03-26T15:27:01.103Z,11.70